Flight Track Log - Related Links

Times and Time Zones

All times are in EDT time to prevent confusion due to time zone crossing. See the SWA1910 flight status page for this flight to view local times or setup timezone preferences in your user account.

Time Position Orientation Groundspeed Altitude Reporting Facility
EDT Latitude Longitude Course Direction KTS MPH feet Rate Location/Type
Tue 05:35:53 PM 42.9833 -78.6833 39° Northeast 180 207 3,300  Level Buffalo TRACON
Tue 05:36:53 PM 42.9667 -78.6167 109° East 231 266 6,400 3,091 Climbing Buffalo TRACON
Tue 05:37:32 PM 42.9147 -78.6214 184° South 256 295 8,400 2,545 Climbing Cleveland Center
Tue 05:38:32 PM 42.8458 -78.6208 180° South 289 333 10,600 3,074 Climbing Cleveland Center
Tue 05:39:33 PM 42.7625 -78.6233 181° South 295 339 14,600 3,600 Climbing Cleveland Center
Tue 05:40:32 PM 42.6728 -78.6233 180° South 310 357 17,800 3,300 Climbing Cleveland Center
Tue 05:41:33 PM 42.5708 -78.6236 180° South 340 391 21,200 3,471 Climbing Cleveland Center
Tue 05:42:33 PM 42.4686 -78.6242 180° South 363 418 24,800 1,900 Climbing Cleveland Center
Tue 05:43:33 PM 42.3661 -78.5992 170° South 369 425 25,000 101 Climbing Cleveland Center
Tue 05:44:32 PM 42.2689 -78.5264 151° Southeast 380 437 25,000  Level Cleveland Center
Tue 05:45:33 PM 42.1717 -78.4483 149° Southeast 394 453 25,000  Level Cleveland Center
Tue 05:46:32 PM 42.0744 -78.3789 152° Southeast 399 459 25,000  Level Cleveland Center
Tue 05:47:32 PM 41.9792 -78.3094 152° Southeast 399 459 25,000  Level Cleveland Center
Tue 05:48:33 PM 41.8839 -78.2403 152° Southeast 399 459 25,000  Level Cleveland Center
Tue 05:49:33 PM 41.7867 -78.1714 152° Southeast 399 459 25,000  Level Cleveland Center
Tue 05:50:29 PM 41.7008 -78.1086 151° Southeast 395 455 25,000  Level New York Center
Tue 05:51:30 PM 41.6031 -78.0397 152° Southeast 395 455 25,000  Level New York Center
Tue 05:52:30 PM 41.5097 -77.9631 148° Southeast 395 455 25,000  Level New York Center
Tue 05:53:28 PM 41.4353 -77.8525 132° Southeast 395 455 25,000  Level New York Center
Tue 05:54:28 PM 41.3586 -77.7394 132° Southeast 401 461 25,000 -298 Level New York Center
Tue 05:55:29 PM 41.2861 -77.6242 130° Southeast 406 467 24,400 -787 Descending New York Center
Tue 05:56:30 PM 41.2114 -77.5117 131° Southeast 406 467 23,400 -950 Descending New York Center
Tue 05:57:29 PM 41.1364 -77.3997 132° Southeast 406 467 22,500 -958 Descending New York Center
Tue 05:58:29 PM 41.0533 -77.2786 132° Southeast 406 467 21,500 -992 Descending New York Center
Tue 05:59:30 PM 40.9781 -77.1697 132° Southeast 400 460 20,500 -1,008 Descending New York Center
Tue 06:00:28 PM 40.9089 -77.0617 130° Southeast 400 460 19,500 -1,017 Descending New York Center
Tue 06:01:28 PM 40.8431 -76.9650 132° Southeast 394 453 18,500 -992 Descending New York Center
Tue 06:02:29 PM 40.7594 -76.8506 134° Southeast 394 453 17,500 -984 Descending New York Center
Tue 06:03:30 PM 40.6847 -76.7592 137° Southeast 387 445 16,500 -1,008 Descending New York Center
Tue 06:04:28 PM 40.6158 -76.6792 139° Southeast 372 428 15,500 -756 Descending New York Center
Tue 06:05:29 PM 40.5356 -76.5739 135° Southeast 374 430 15,000 -246 Descending New York Center
Tue 06:06:30 PM 40.4694 -76.4783 132° Southeast 363 418 15,000  Level New York Center
Tue 06:07:30 PM 40.3908 -76.4256 153° Southeast 322 371 15,000  Level New York Center
Tue 06:08:28 PM 40.3103 -76.4517 194° South 309 356 15,000 -250 Level New York Center
Tue 06:09:30 PM 40.2094 -76.4678 187° South 325 374 14,500 -700 Descending New York Center
Tue 06:10:28 PM 40.1211 -76.4822 187° South 330 380 13,600 -958 Descending New York Center
Tue 06:11:29 PM 40.0347 -76.4997 189° South 335 386 12,600 -596 Descending New York Center
Tue 06:13:09 PM 39.8833 -76.5333 190° South 293 337 12,000 -335 Descending Potomac TRACON
Tue 06:14:10 PM 39.8167 -76.5500 191° South 296 341 11,700 -645 Descending Potomac TRACON
Tue 06:15:10 PM 39.7333 -76.5833 197° South 279 321 10,700 -1,211 Descending Potomac TRACON
Tue 06:16:04 PM 39.6833 -76.6333 218° Southwest 279 321 9,400 -1,350 Descending Potomac TRACON
Tue 06:17:10 PM 39.6000 -76.6667 197° South 289 333 8,000 -1,095 Descending Potomac TRACON
Tue 06:18:10 PM 39.5333 -76.7000 201° Southwest 257 296 7,100 -1,000 Descending Potomac TRACON
Tue 06:19:04 PM 39.4833 -76.6833 166° South 277 319 6,100 -1,043 Descending Potomac TRACON
Tue 06:20:05 PM 39.4500 -76.6000 117° Southeast 277 319 5,100 -893 Descending Potomac TRACON
Tue 06:21:05 PM 39.4000 -76.5333 134° Southeast 269 310 4,300 -579 Descending Potomac TRACON
Tue 06:21:59 PM 39.3500 -76.4667 134° Southeast 269 310 4,000 -200 Descending Potomac TRACON
Tue 06:23:05 PM 39.2833 -76.4333 159° South 226 260 3,900 -500 Descending Potomac TRACON
Tue 06:23:59 PM 39.2333 -76.4500 194° South 218 251 3,000 -474 Descending Potomac TRACON
Tue 06:24:59 PM 39.1667 -76.4500 180° South 215 247 3,000 -350 Level Potomac TRACON
Tue 06:25:59 PM 39.1167 -76.5000 218° Southwest 208 239 2,300 -750 Descending Potomac TRACON
Tue 06:26:59 PM 39.0833 -76.5667 237° Southwest 213 245 1,500 -450 Descending Potomac TRACON
Tue 06:27:59 PM 39.1167 -76.6167 311° West 172 198 1,400 -450 Descending Potomac TRACON
Tue 06:28:59 PM 39.1500 -76.6500 322° Northwest 140 161 600 -800 Descending Potomac TRACON

Login

Don't have an account? Register now (free) for customized features, flight alerts, and more!